Time;durP1;ratioP1;P1;durP2;ratioP2;P2;SDS_P1;SDS_P2;PMS_P1;PMS_P2;Temp;Humidity;BMP_temperature;BMP_pressure;BME280_temperature;BME280_humidity;BME280_pressure;Samples;Min_cycle;Max_cycle;Signal;HPM_P1;HPM_P2
2021/01/24 00:01:39;;;;;;;31.25;4.45;;;;;;;;;;5015561;28;20025;-46
2021/01/24 00:04:06;;;;;;;33.67;4.78;;;;;;;;;;4998213;28;20076;-45
2021/01/24 00:06:33;;;;;;;40.70;5.88;;;;;;;;;;5015607;28;20018;-43
2021/01/24 00:09:01;;;;;;;42.00;5.35;;;;;;;;;;5015548;28;20025;-44
2021/01/24 00:11:28;;;;;;;43.97;6.00;;;;;;;;;;5014309;28;20048;-45
2021/01/24 00:13:55;;;;;;;22.77;5.28;;;;;;;;;;5015666;28;20531;-43
2021/01/24 00:16:22;;;;;;;29.60;5.28;;;;;;;;;;5010598;28;20128;-46
2021/01/24 00:18:49;;;;;;;18.95;5.03;;;;;;;;;;4978152;28;20034;-43
2021/01/24 00:21:16;;;;;;;31.25;5.15;;;;;;;;;;4994417;28;20033;-47
2021/01/24 00:23:43;;;;;;;27.77;5.68;;;;;;;;;;5002667;28;20113;-49
2021/01/24 00:26:10;;;;;;;25.45;4.68;;;;;;;;;;5014475;28;20034;-49
2021/01/24 00:28:37;;;;;;;27.67;4.65;;;;;;;;;;5014804;28;20478;-45
2021/01/24 00:31:04;;;;;;;30.10;4.68;;;;;;;;;;5011466;28;20064;-45
2021/01/24 00:33:31;;;;;;;50.83;7.38;;;;;;;;;;5008422;28;20033;-46
2021/01/24 00:35:58;;;;;;;43.35;5.68;;;;;;;;;;4988868;28;20026;-46
2021/01/24 00:38:25;;;;;;;43.40;6.20;;;;;;;;;;5014232;28;20026;-46
2021/01/24 00:40:52;;;;;;;35.92;5.07;;;;;;;;;;5012148;28;20030;-46
2021/01/24 00:43:19;;;;;;;34.53;4.53;;;;;;;;;;4995705;28;20105;-44
2021/01/24 00:45:48;;;;;;;40.55;5.20;;;;;;;;;;5009932;28;20022;-47
2021/01/24 00:48:18;;;;;;;37.45;4.40;;;;;;;;;;5021113;28;20037;-46
2021/01/24 00:50:45;;;;;;;24.10;4.97;;;;;;;;;;5013809;28;20033;-47
2021/01/24 00:53:12;;;;;;;36.88;5.63;;;;;;;;;;5017167;28;20144;-45
2021/01/24 00:55:39;;;;;;;33.72;6.45;;;;;;;;;;5034318;28;20465;-45
2021/01/24 00:58:05;;;;;;;25.17;5.50;;;;;;;;;;5031449;28;20030;-45
2021/01/24 01:00:32;;;;;;;47.72;6.20;;;;;;;;;;5014143;28;20026;-45
2021/01/24 01:03:00;;;;;;;50.50;7.38;;;;;;;;;;5013714;28;20083;-46
2021/01/24 01:05:27;;;;;;;37.92;6.45;;;;;;;;;;5013947;28;20021;-45
2021/01/24 01:07:54;;;;;;;19.45;4.97;;;;;;;;;;4996415;28;20050;-47
2021/01/24 01:10:21;;;;;;;27.50;4.30;;;;;;;;;;5013387;28;20061;-46
2021/01/24 01:12:48;;;;;;;21.83;4.30;;;;;;;;;;5013376;28;20045;-46
2021/01/24 01:15:15;;;;;;;23.40;4.82;;;;;;;;;;4996011;28;20018;-45
2021/01/24 01:17:42;;;;;;;60.05;13.63;;;;;;;;;;5013815;28;20053;-45
2021/01/24 01:20:10;;;;;;;37.85;10.00;;;;;;;;;;5013410;28;20026;-45
2021/01/24 01:22:37;;;;;;;32.08;9.75;;;;;;;;;;5023975;28;20038;-45
2021/01/24 01:25:05;;;;;;;32.70;8.32;;;;;;;;;;5003391;28;20418;-45
2021/01/24 01:27:32;;;;;;;31.08;6.93;;;;;;;;;;5025500;28;20033;-44
2021/01/24 01:29:59;;;;;;;18.48;5.88;;;;;;;;;;5009219;28;20095;-46
2021/01/24 01:32:26;;;;;;;31.60;6.53;;;;;;;;;;5013937;28;20033;-45
2021/01/24 01:34:53;;;;;;;24.98;5.25;;;;;;;;;;5021223;28;20053;-46
2021/01/24 01:37:20;;;;;;;24.00;4.38;;;;;;;;;;4994433;28;20037;-50
2021/01/24 01:39:50;;;;;;;16.80;4.45;;;;;;;;;;5012055;28;20502;-46
2021/01/24 01:42:17;;;;;;;15.40;4.10;;;;;;;;;;5012637;28;20026;-48
2021/01/24 01:44:45;;;;;;;19.50;4.35;;;;;;;;;;5012530;28;20049;-48
2021/01/24 01:47:13;;;;;;;20.00;4.47;;;;;;;;;;5012684;28;20036;-46
2021/01/24 01:49:40;;;;;;;13.02;4.20;;;;;;;;;;5025897;28;20025;-44
2021/01/24 01:52:07;;;;;;;20.33;3.80;;;;;;;;;;5013055;28;20025;-46
2021/01/24 01:54:35;;;;;;;19.63;3.55;;;;;;;;;;5027432;28;20037;-45
2021/01/24 01:57:02;;;;;;;10.45;2.75;;;;;;;;;;5030944;28;20086;-45
2021/01/24 01:59:29;;;;;;;10.63;2.60;;;;;;;;;;5019602;28;20199;-44
2021/01/24 02:01:56;;;;;;;17.20;2.90;;;;;;;;;;5019595;28;20029;-44
2021/01/24 02:04:35;;;;;;;20.58;3.72;;;;;;;;;;5031524;28;20044;-45
2021/01/24 02:07:23;;;;;;;13.35;2.08;;;;;;;;;;4988687;28;20022;-46
2021/01/24 02:10:10;;;;;;;8.40;2.08;;;;;;;;;;5000939;28;20065;-45
2021/01/24 02:12:50;;;;;;;12.98;2.17;;;;;;;;;;5011558;28;20528;-45
2021/01/24 02:15:19;;;;;;;9.60;1.40;;;;;;;;;;5014693;28;20026;-45
2021/01/24 02:17:56;;;;;;;6.85;1.73;;;;;;;;;;5028282;28;20022;-45
2021/01/24 02:20:41;;;;;;;18.88;2.58;;;;;;;;;;5012607;28;20596;-44
2021/01/24 02:23:12;;;;;;;11.73;1.90;;;;;;;;;;5005026;28;20477;-46
2021/01/24 02:25:39;;;;;;;21.75;2.63;;;;;;;;;;5011967;28;20026;-46
2021/01/24 02:28:09;;;;;;;7.13;2.10;;;;;;;;;;5011705;28;20037;-48
2021/01/24 02:30:37;;;;;;;19.52;1.92;;;;;;;;;;5012150;28;20021;-46
2021/01/24 02:33:15;;;;;;;7.85;2.17;;;;;;;;;;5012059;28;20366;-46
2021/01/24 02:35:44;;;;;;;14.68;2.55;;;;;;;;;;5012047;28;20378;-47
2021/01/24 02:38:11;;;;;;;16.33;2.63;;;;;;;;;;5012002;28;20018;-45
2021/01/24 02:40:39;;;;;;;24.42;2.90;;;;;;;;;;5011512;28;20022;-45
2021/01/24 02:43:08;;;;;;;11.93;2.33;;;;;;;;;;5012122;28;20022;-45
2021/01/24 02:45:36;;;;;;;13.68;2.42;;;;;;;;;;5007931;28;20058;-44
2021/01/24 02:48:05;;;;;;;11.60;2.40;;;;;;;;;;5011972;28;20053;-44
2021/01/24 02:50:32;;;;;;;16.45;2.38;;;;;;;;;;5031962;28;20053;-52
2021/01/24 02:53:00;;;;;;;12.45;2.60;;;;;;;;;;5020690;28;20042;-47
2021/01/24 02:55:28;;;;;;;19.75;3.13;;;;;;;;;;5013485;28;20029;-46
2021/01/24 02:57:55;;;;;;;34.33;3.00;;;;;;;;;;5030552;28;20056;-48
2021/01/24 03:00:23;;;;;;;25.25;3.13;;;;;;;;;;5012031;28;20030;-47
2021/01/24 03:02:50;;;;;;;18.70;3.00;;;;;;;;;;4997862;28;20036;-46
2021/01/24 03:05:18;;;;;;;9.65;1.55;;;;;;;;;;4992868;28;20073;-46
2021/01/24 03:07:45;;;;;;;11.07;1.70;;;;;;;;;;4992734;28;20045;-46
2021/01/24 03:10:13;;;;;;;17.38;2.05;;;;;;;;;;4985174;28;20018;-48
2021/01/24 03:12:42;;;;;;;10.88;2.35;;;;;;;;;;5011931;28;20062;-47
2021/01/24 03:15:10;;;;;;;14.15;1.83;;;;;;;;;;5012073;28;20032;-47
2021/01/24 03:17:38;;;;;;;15.25;1.80;;;;;;;;;;5012342;28;20500;-46
2021/01/24 03:20:06;;;;;;;15.98;2.00;;;;;;;;;;5007787;28;20036;-50
2021/01/24 03:22:37;;;;;;;15.70;1.77;;;;;;;;;;5008784;28;20072;-54
2021/01/24 03:25:04;;;;;;;16.70;1.80;;;;;;;;;;5010830;28;20026;-58
2021/01/24 03:27:31;;;;;;;20.90;1.92;;;;;;;;;;5011740;28;20048;-49
2021/01/24 03:30:01;;;;;;;11.48;1.70;;;;;;;;;;5011825;28;20058;-53
2021/01/24 03:32:28;;;;;;;13.77;1.35;;;;;;;;;;5011217;28;20129;-50
2021/01/24 03:34:55;;;;;;;15.70;2.10;;;;;;;;;;5011989;28;20061;-52
2021/01/24 03:37:22;;;;;;;19.05;2.03;;;;;;;;;;5012145;28;20358;-52
2021/01/24 03:39:49;;;;;;;13.98;2.03;;;;;;;;;;5012043;28;20077;-49
2021/01/24 03:42:16;;;;;;;25.10;2.05;;;;;;;;;;5011753;28;20037;-47
2021/01/24 03:44:43;;;;;;;28.73;2.25;;;;;;;;;;5011832;28;20076;-49
2021/01/24 03:47:11;;;;;;;25.77;2.38;;;;;;;;;;4993771;28;20076;-50
2021/01/24 03:49:39;;;;;;;29.27;2.63;;;;;;;;;;4992413;28;20018;-47
2021/01/24 03:52:06;;;;;;;25.15;2.67;;;;;;;;;;5011728;28;20041;-51
2021/01/24 03:54:33;;;;;;;29.23;2.70;;;;;;;;;;5011671;28;20041;-50
2021/01/24 03:57:00;;;;;;;38.25;3.08;;;;;;;;;;5011557;28;20030;-49
2021/01/24 03:59:27;;;;;;;42.10;3.85;;;;;;;;;;5011797;28;20029;-53
2021/01/24 04:01:54;;;;;;;34.53;2.60;;;;;;;;;;5012498;28;20024;-52
2021/01/24 04:04:21;;;;;;;40.63;3.50;;;;;;;;;;4995217;28;20025;-52
2021/01/24 04:06:48;;;;;;;38.47;2.80;;;;;;;;;;5012409;28;20072;-52
2021/01/24 04:09:15;;;;;;;43.08;3.58;;;;;;;;;;5011336;28;20044;-52
2021/01/24 04:11:42;;;;;;;40.67;4.55;;;;;;;;;;5011524;28;20545;-51
2021/01/24 04:14:09;;;;;;;43.90;4.63;;;;;;;;;;5012216;28;20583;-49
2021/01/24 04:16:36;;;;;;;59.60;4.68;;;;;;;;;;5012314;28;20014;-48
2021/01/24 04:19:03;;;;;;;34.25;4.25;;;;;;;;;;5011989;28;20030;-50
2021/01/24 04:21:30;;;;;;;31.10;3.17;;;;;;;;;;4993613;28;20113;-49
2021/01/24 04:23:57;;;;;;;19.95;2.58;;;;;;;;;;5010571;28;20032;-50
2021/01/24 04:26:24;;;;;;;13.77;1.95;;;;;;;;;;5011225;28;20018;-48
2021/01/24 04:28:51;;;;;;;17.20;1.45;;;;;;;;;;4995449;28;20109;-49
2021/01/24 04:31:18;;;;;;;12.25;1.60;;;;;;;;;;5014780;28;20541;-49
2021/01/24 04:33:45;;;;;;;11.00;1.40;;;;;;;;;;5014178;28;20045;-54
2021/01/24 04:36:12;;;;;;;11.10;1.10;;;;;;;;;;5014653;28;20022;-49
2021/01/24 04:38:39;;;;;;;10.82;0.82;;;;;;;;;;5014555;28;20030;-49
2021/01/24 04:41:07;;;;;;;8.27;1.15;;;;;;;;;;5013805;28;20108;-47
2021/01/24 04:43:34;;;;;;;10.60;1.50;;;;;;;;;;5014341;28;20029;-49
2021/01/24 04:46:02;;;;;;;11.77;1.80;;;;;;;;;;5014721;28;20022;-48
2021/01/24 04:48:29;;;;;;;7.88;1.40;;;;;;;;;;5014378;28;20378;-48
2021/01/24 04:50:56;;;;;;;6.07;1.27;;;;;;;;;;5014504;28;20024;-50
2021/01/24 04:53:23;;;;;;;12.48;1.20;;;;;;;;;;5014449;28;20037;-46
2021/01/24 04:55:50;;;;;;;4.03;0.90;;;;;;;;;;5014482;28;20034;-52
2021/01/24 04:58:18;;;;;;;9.95;1.10;;;;;;;;;;5014669;28;20080;-50
2021/01/24 05:00:45;;;;;;;9.75;1.50;;;;;;;;;;5014580;28;20033;-49
2021/01/24 05:03:15;;;;;;;5.15;0.90;;;;;;;;;;5014865;28;20030;-50
2021/01/24 05:05:42;;;;;;;7.82;1.30;;;;;;;;;;5014862;28;20110;-51
2021/01/24 05:08:11;;;;;;;14.00;1.50;;;;;;;;;;5014641;28;20489;-49
2021/01/24 05:10:38;;;;;;;8.73;1.40;;;;;;;;;;5014477;28;20076;-49
2021/01/24 05:13:05;;;;;;;7.00;1.10;;;;;;;;;;5013962;28;20092;-48
2021/01/24 05:15:36;;;;;;;10.70;1.13;;;;;;;;;;5014906;28;20022;-49
2021/01/24 05:18:04;;;;;;;8.23;1.02;;;;;;;;;;5014735;28;20486;-48
2021/01/24 05:20:32;;;;;;;5.05;0.90;;;;;;;;;;5014817;28;20026;-47
2021/01/24 05:23:00;;;;;;;10.45;2.08;;;;;;;;;;5014789;28;20052;-48
2021/01/24 05:25:32;;;;;;;6.70;0.80;;;;;;;;;;5014940;28;20029;-50
2021/01/24 05:27:59;;;;;;;8.25;0.93;;;;;;;;;;5014750;28;20021;-47
2021/01/24 05:30:33;;;;;;;4.38;0.80;;;;;;;;;;5014583;28;20440;-50
2021/01/24 05:33:00;;;;;;;5.82;1.20;;;;;;;;;;5014537;28;20131;-49
2021/01/24 05:35:28;;;;;;;10.52;1.25;;;;;;;;;;5014734;28;20108;-49
2021/01/24 05:37:55;;;;;;;11.05;1.35;;;;;;;;;;5014133;28;20029;-49
2021/01/24 05:40:22;;;;;;;8.98;0.93;;;;;;;;;;5014375;28;20024;-50
2021/01/24 05:42:49;;;;;;;4.28;0.90;;;;;;;;;;5014591;28;20547;-49
2021/01/24 05:45:19;;;;;;;5.55;0.80;;;;;;;;;;4996752;28;20033;-50
2021/01/24 05:47:47;;;;;;;7.47;1.15;;;;;;;;;;4997110;28;20034;-50
2021/01/24 05:50:18;;;;;;;5.80;1.15;;;;;;;;;;5014479;28;20034;-51
2021/01/24 05:52:48;;;;;;;6.93;1.20;;;;;;;;;;5014151;28;20037;-51
2021/01/24 05:55:31;;;;;;;10.68;1.45;;;;;;;;;;5014377;28;20114;-50
2021/01/24 05:57:59;;;;;;;3.17;1.10;;;;;;;;;;5000427;28;20022;-51
2021/01/24 06:00:26;;;;;;;7.30;1.20;;;;;;;;;;4995528;28;20085;-49
2021/01/24 06:02:56;;;;;;;3.47;1.10;;;;;;;;;;5014170;28;20030;-50
2021/01/24 06:05:24;;;;;;;4.10;1.10;;;;;;;;;;5005877;28;20038;-49
2021/01/24 06:07:54;;;;;;;9.80;1.20;;;;;;;;;;4994274;28;20053;-49
2021/01/24 06:10:21;;;;;;;2.65;1.20;;;;;;;;;;4994328;28;20022;-50
2021/01/24 06:12:48;;;;;;;10.98;1.10;;;;;;;;;;4994016;28;20054;-51
2021/01/24 06:15:17;;;;;;;6.95;1.25;;;;;;;;;;4977174;28;20026;-51
2021/01/24 06:17:45;;;;;;;5.65;0.93;;;;;;;;;;5004818;28;20462;-49
2021/01/24 06:20:15;;;;;;;6.95;1.40;;;;;;;;;;5013476;28;20022;-50
2021/01/24 06:22:48;;;;;;;9.68;1.15;;;;;;;;;;5013729;28;20029;-47
2021/01/24 06:25:18;;;;;;;5.13;1.30;;;;;;;;;;5013796;28;20030;-51
2021/01/24 06:27:48;;;;;;;6.45;1.10;;;;;;;;;;5014101;28;20533;-50
2021/01/24 06:30:16;;;;;;;9.35;1.15;;;;;;;;;;5013465;28;20089;-53
2021/01/24 06:32:43;;;;;;;13.60;1.10;;;;;;;;;;5013374;28;20551;-53
2021/01/24 06:35:24;;;;;;;8.25;1.00;;;;;;;;;;5008492;28;20113;-53
2021/01/24 06:38:01;;;;;;;6.53;1.15;;;;;;;;;;4994086;28;20033;-50
2021/01/24 06:40:29;;;;;;;5.57;1.02;;;;;;;;;;4993758;28;20027;-53
2021/01/24 06:42:57;;;;;;;7.30;1.05;;;;;;;;;;4993762;28;20084;-51
2021/01/24 06:45:27;;;;;;;4.07;1.10;;;;;;;;;;4992377;28;20028;-54
2021/01/24 06:47:58;;;;;;;8.90;1.20;;;;;;;;;;4993814;28;20026;-49
2021/01/24 06:50:39;;;;;;;5.63;1.15;;;;;;;;;;4992802;28;20026;-49
2021/01/24 06:53:26;;;;;;;4.72;1.05;;;;;;;;;;4993615;28;20038;-48
2021/01/24 06:56:09;;;;;;;5.65;1.30;;;;;;;;;;4993357;28;20033;-52
2021/01/24 06:58:37;;;;;;;3.20;1.10;;;;;;;;;;4993888;28;20563;-52
2021/01/24 07:01:22;;;;;;;6.97;0.93;;;;;;;;;;4993407;28;20109;-50
2021/01/24 07:04:09;;;;;;;6.70;1.13;;;;;;;;;;4993575;28;20050;-53
2021/01/24 07:06:37;;;;;;;4.25;1.05;;;;;;;;;;4993309;28;20105;-49
2021/01/24 07:09:25;;;;;;;10.20;1.48;;;;;;;;;;4993460;28;20034;-49
2021/01/24 07:11:52;;;;;;;5.75;1.20;;;;;;;;;;4976954;28;20050;-50
2021/01/24 07:14:39;;;;;;;6.30;1.15;;;;;;;;;;4993409;28;20031;-51
2021/01/24 07:17:11;;;;;;;2.63;0.95;;;;;;;;;;4977173;28;20793;-49
2021/01/24 07:19:38;;;;;;;3.97;1.10;;;;;;;;;;4993255;28;20137;-47
2021/01/24 07:22:08;;;;;;;8.05;1.50;;;;;;;;;;4993166;28;20022;-49
2021/01/24 07:24:35;;;;;;;5.93;1.30;;;;;;;;;;4993576;28;20104;-49
2021/01/24 07:27:02;;;;;;;5.85;1.02;;;;;;;;;;4993297;28;20222;-53
2021/01/24 07:29:29;;;;;;;7.32;1.10;;;;;;;;;;4993172;28;20149;-49
2021/01/24 07:31:56;;;;;;;10.90;1.20;;;;;;;;;;4993172;28;20029;-52
2021/01/24 07:34:24;;;;;;;5.57;1.38;;;;;;;;;;4993018;28;20351;-49
2021/01/24 07:36:51;;;;;;;5.63;1.27;;;;;;;;;;4993119;28;20026;-52
2021/01/24 07:39:19;;;;;;;5.72;1.25;;;;;;;;;;4993394;28;20081;-50
2021/01/24 07:41:47;;;;;;;6.28;1.20;;;;;;;;;;4993108;28;20033;-50
2021/01/24 07:44:14;;;;;;;10.27;1.10;;;;;;;;;;4992970;28;20029;-49
2021/01/24 07:46:41;;;;;;;5.82;1.30;;;;;;;;;;4993307;28;20034;-49
2021/01/24 07:49:08;;;;;;;5.90;1.20;;;;;;;;;;4992922;28;20414;-52
2021/01/24 07:51:36;;;;;;;5.05;1.10;;;;;;;;;;4993026;28;20050;-48
2021/01/24 07:54:03;;;;;;;7.47;1.40;;;;;;;;;;4992971;28;20515;-49
2021/01/24 07:56:30;;;;;;;5.43;1.25;;;;;;;;;;4992991;28;20049;-49
2021/01/24 07:58:57;;;;;;;3.22;1.42;;;;;;;;;;4992987;28;20381;-49
2021/01/24 08:01:25;;;;;;;3.30;1.55;;;;;;;;;;4993847;28;20037;-50
2021/01/24 08:03:52;;;;;;;10.68;1.70;;;;;;;;;;4996721;28;20022;-52
2021/01/24 08:06:19;;;;;;;11.10;1.80;;;;;;;;;;4996638;28;20405;-49
2021/01/24 08:08:47;;;;;;;5.18;1.58;;;;;;;;;;4996767;28;20026;-48
2021/01/24 08:11:14;;;;;;;6.45;1.50;;;;;;;;;;4996370;28;20057;-47
2021/01/24 08:13:42;;;;;;;8.10;1.73;;;;;;;;;;4996384;28;20105;-48
2021/01/24 08:16:16;;;;;;;9.15;1.50;;;;;;;;;;5160869;22;20444;-50
2021/01/24 08:18:44;;;;;;;6.40;1.17;;;;;;;;;;4954133;28;20034;-49
2021/01/24 08:21:11;;;;;;;5.82;1.27;;;;;;;;;;4954165;29;20023;-49
2021/01/24 08:23:38;;;;;;;5.72;1.17;;;;;;;;;;4954279;28;20378;-50
2021/01/24 08:26:06;;;;;;;5.97;1.05;;;;;;;;;;4936759;29;20097;-49
2021/01/24 08:28:34;;;;;;;8.18;1.42;;;;;;;;;;4953960;29;20034;-49
2021/01/24 08:31:05;;;;;;;7.90;1.30;;;;;;;;;;4954175;29;20477;-49
2021/01/24 08:33:33;;;;;;;7.65;1.23;;;;;;;;;;4954102;29;20074;-49
2021/01/24 08:36:12;;;;;;;2.80;1.17;;;;;;;;;;4953961;28;20019;-50
2021/01/24 08:38:40;;;;;;;8.98;1.63;;;;;;;;;;4953973;29;20027;-50
2021/01/24 08:41:07;;;;;;;14.75;1.90;;;;;;;;;;4953904;28;20019;-48
2021/01/24 08:43:34;;;;;;;8.57;1.95;;;;;;;;;;4953809;28;20028;-49
2021/01/24 08:46:20;;;;;;;7.30;1.58;;;;;;;;;;4953761;29;20512;-50
2021/01/24 08:48:58;;;;;;;4.75;1.30;;;;;;;;;;4953699;28;20038;-49
2021/01/24 08:51:25;;;;;;;6.20;1.25;;;;;;;;;;4953642;28;20114;-50
2021/01/24 08:53:53;;;;;;;11.13;1.55;;;;;;;;;;4953679;28;20043;-48
2021/01/24 08:56:22;;;;;;;11.18;1.80;;;;;;;;;;4953561;29;20062;-53
2021/01/24 08:58:49;;;;;;;5.78;1.35;;;;;;;;;;4953834;29;20478;-50
2021/01/24 09:01:17;;;;;;;16.73;2.20;;;;;;;;;;4953696;28;20027;-50
2021/01/24 09:03:44;;;;;;;5.32;1.65;;;;;;;;;;4953512;28;20023;-49
2021/01/24 09:06:20;;;;;;;5.10;1.35;;;;;;;;;;4953476;29;20025;-49
2021/01/24 09:08:59;;;;;;;10.07;1.45;;;;;;;;;;4953468;28;20098;-49
2021/01/24 09:11:26;;;;;;;10.35;1.52;;;;;;;;;;4953510;28;20031;-50
2021/01/24 09:13:54;;;;;;;6.13;1.30;;;;;;;;;;4952496;28;20031;-49
2021/01/24 09:16:24;;;;;;;12.15;1.42;;;;;;;;;;5012322;28;20072;-51
2021/01/24 09:18:52;;;;;;;13.13;1.30;;;;;;;;;;5054150;28;20017;-53
2021/01/24 09:21:19;;;;;;;6.20;1.23;;;;;;;;;;5054130;28;20400;-52
2021/01/24 09:23:46;;;;;;;8.60;1.33;;;;;;;;;;5054348;28;20055;-53
2021/01/24 09:26:13;;;;;;;6.90;1.38;;;;;;;;;;5054006;28;20029;-52
2021/01/24 09:28:40;;;;;;;7.00;1.40;;;;;;;;;;5036410;28;20543;-52
2021/01/24 09:31:07;;;;;;;8.60;2.03;;;;;;;;;;5054103;28;20416;-48
2021/01/24 09:33:34;;;;;;;8.02;1.88;;;;;;;;;;5053755;28;20041;-50
2021/01/24 09:36:01;;;;;;;4.45;1.60;;;;;;;;;;5036628;28;20031;-50
2021/01/24 09:38:28;;;;;;;6.30;1.40;;;;;;;;;;5053930;28;20028;-51
2021/01/24 09:40:55;;;;;;;10.30;1.63;;;;;;;;;;5053930;28;20071;-48
2021/01/24 09:43:22;;;;;;;8.60;1.70;;;;;;;;;;5036514;28;20021;-51
2021/01/24 09:45:49;;;;;;;8.55;1.40;;;;;;;;;;5053816;28;20057;-50
2021/01/24 09:48:16;;;;;;;8.43;1.75;;;;;;;;;;5053554;28;20435;-53
2021/01/24 09:50:43;;;;;;;8.23;1.73;;;;;;;;;;5053790;28;20017;-48
2021/01/24 09:53:10;;;;;;;5.95;1.73;;;;;;;;;;5053627;28;20107;-52
2021/01/24 09:55:39;;;;;;;8.30;1.42;;;;;;;;;;5053646;28;20017;-48
2021/01/24 09:58:06;;;;;;;12.32;1.98;;;;;;;;;;5053733;28;20083;-50
2021/01/24 10:00:34;;;;;;;22.88;2.30;;;;;;;;;;5035921;28;20025;-52
2021/01/24 10:03:01;;;;;;;14.90;1.75;;;;;;;;;;5053378;28;20041;-52
2021/01/24 10:05:28;;;;;;;13.63;2.08;;;;;;;;;;5053590;28;20025;-50
2021/01/24 10:07:55;;;;;;;8.65;1.80;;;;;;;;;;5053400;28;20486;-51
2021/01/24 10:10:22;;;;;;;7.38;1.50;;;;;;;;;;5053299;28;20108;-48
2021/01/24 10:12:49;;;;;;;5.63;1.58;;;;;;;;;;5053449;28;20060;-52
2021/01/24 10:15:16;;;;;;;6.43;2.00;;;;;;;;;;5052954;28;20021;-48
2021/01/24 10:17:43;;;;;;;8.85;2.30;;;;;;;;;;5053085;28;20376;-48
2021/01/24 10:20:10;;;;;;;7.80;2.03;;;;;;;;;;5053313;28;20357;-49
2021/01/24 10:22:38;;;;;;;11.45;2.08;;;;;;;;;;5035159;28;20417;-48
2021/01/24 10:25:05;;;;;;;8.13;1.70;;;;;;;;;;5053048;28;20017;-49
2021/01/24 10:27:32;;;;;;;9.00;2.13;;;;;;;;;;5053146;28;20112;-50
2021/01/24 10:29:59;;;;;;;12.93;2.17;;;;;;;;;;5053024;28;20537;-49
2021/01/24 10:32:26;;;;;;;11.65;2.28;;;;;;;;;;5052638;28;20040;-49
2021/01/24 10:34:53;;;;;;;8.00;2.08;;;;;;;;;;5053085;28;20025;-49
2021/01/24 10:37:20;;;;;;;9.52;1.80;;;;;;;;;;5052827;28;20023;-52
2021/01/24 10:39:47;;;;;;;6.97;2.20;;;;;;;;;;5052802;28;20013;-50
2021/01/24 10:42:14;;;;;;;10.77;2.40;;;;;;;;;;5052831;28;20388;-49
2021/01/24 10:44:41;;;;;;;10.68;2.70;;;;;;;;;;5052743;28;20357;-48
2021/01/24 10:47:08;;;;;;;10.48;2.50;;;;;;;;;;5052548;28;20105;-48
2021/01/24 10:49:35;;;;;;;7.40;2.15;;;;;;;;;;5052689;28;20036;-49
2021/01/24 10:52:02;;;;;;;9.30;2.10;;;;;;;;;;5052581;28;20137;-47
2021/01/24 10:54:35;;;;;;;13.85;2.15;;;;;;;;;;5052380;28;20076;-48
2021/01/24 10:57:02;;;;;;;9.07;2.05;;;;;;;;;;5034619;28;20021;-48
2021/01/24 10:59:29;;;;;;;11.57;2.40;;;;;;;;;;5052764;28;20105;-49
2021/01/24 11:01:57;;;;;;;7.20;1.92;;;;;;;;;;5052414;28;20021;-47
2021/01/24 11:04:24;;;;;;;18.10;2.53;;;;;;;;;;5052342;28;20530;-49
2021/01/24 11:06:51;;;;;;;17.58;2.55;;;;;;;;;;5052564;28;20029;-49
2021/01/24 11:09:18;;;;;;;22.27;2.72;;;;;;;;;;5052432;28;20032;-48
2021/01/24 11:11:45;;;;;;;9.30;2.10;;;;;;;;;;5052283;28;20028;-49
2021/01/24 11:14:13;;;;;;;12.00;1.75;;;;;;;;;;5052549;28;20041;-49
2021/01/24 11:16:41;;;;;;;6.35;1.75;;;;;;;;;;5051726;28;20132;-50
2021/01/24 11:19:08;;;;;;;9.73;1.95;;;;;;;;;;5052089;28;20198;-50
2021/01/24 11:21:35;;;;;;;11.07;2.08;;;;;;;;;;5052469;28;20473;-48
2021/01/24 11:24:02;;;;;;;10.30;1.92;;;;;;;;;;5052276;28;20028;-51
2021/01/24 11:26:29;;;;;;;12.10;2.08;;;;;;;;;;5052163;28;20496;-48
2021/01/24 11:28:56;;;;;;;11.05;1.67;;;;;;;;;;5052084;28;20392;-51
2021/01/24 11:31:23;;;;;;;13.25;2.22;;;;;;;;;;5052190;28;20029;-49
2021/01/24 11:33:50;;;;;;;8.45;1.60;;;;;;;;;;5052110;28;20068;-51
2021/01/24 11:36:17;;;;;;;15.73;2.10;;;;;;;;;;5052698;28;20056;-49
2021/01/24 11:38:44;;;;;;;18.95;2.80;;;;;;;;;;5056291;28;20029;-51
2021/01/24 11:41:12;;;;;;;14.05;2.58;;;;;;;;;;5055992;28;20021;-49
2021/01/24 11:43:39;;;;;;;17.23;2.28;;;;;;;;;;5056319;28;20017;-50
2021/01/24 11:46:06;;;;;;;8.32;1.67;;;;;;;;;;5056222;28;20051;-53
2021/01/24 11:48:33;;;;;;;9.68;1.83;;;;;;;;;;5037947;28;20078;-49
2021/01/24 11:51:00;;;;;;;13.15;2.10;;;;;;;;;;5055952;28;20025;-50
2021/01/24 11:53:27;;;;;;;19.55;2.30;;;;;;;;;;5055690;28;20071;-50
2021/01/24 11:55:55;;;;;;;25.77;2.13;;;;;;;;;;5055771;28;20021;-48
2021/01/24 11:58:22;;;;;;;21.75;2.95;;;;;;;;;;5055562;28;20021;-50
2021/01/24 12:00:49;;;;;;;11.98;2.35;;;;;;;;;;5055498;28;20085;-49
2021/01/24 12:03:16;;;;;;;22.80;2.50;;;;;;;;;;5055476;28;20037;-49
2021/01/24 12:05:43;;;;;;;25.27;3.03;;;;;;;;;;5055679;28;20028;-50
2021/01/24 12:08:10;;;;;;;12.82;2.00;;;;;;;;;;5037887;28;20033;-49
2021/01/24 12:10:37;;;;;;;15.10;1.95;;;;;;;;;;5055644;28;20502;-48
2021/01/24 12:13:04;;;;;;;17.45;2.90;;;;;;;;;;5037568;28;20060;-48
2021/01/24 12:15:31;;;;;;;14.88;2.47;;;;;;;;;;5037399;28;20021;-49
2021/01/24 12:17:58;;;;;;;18.52;2.50;;;;;;;;;;5055366;28;20037;-47
2021/01/24 12:20:25;;;;;;;10.45;2.65;;;;;;;;;;5055084;28;20056;-46
2021/01/24 12:22:52;;;;;;;34.08;3.92;;;;;;;;;;5055378;28;20013;-47
2021/01/24 12:25:19;;;;;;;35.35;3.75;;;;;;;;;;5055331;28;20551;-46
2021/01/24 12:27:46;;;;;;;29.83;3.22;;;;;;;;;;5055181;28;20033;-48
2021/01/24 12:30:14;;;;;;;24.23;2.85;;;;;;;;;;5055254;28;20013;-49
2021/01/24 12:32:41;;;;;;;15.10;2.65;;;;;;;;;;5054729;28;20068;-49
2021/01/24 12:35:09;;;;;;;16.42;2.15;;;;;;;;;;5055030;28;20053;-46
2021/01/24 12:37:36;;;;;;;12.80;2.00;;;;;;;;;;5037245;28;20029;-47
2021/01/24 12:40:04;;;;;;;15.30;2.08;;;;;;;;;;5055024;28;20100;-48
2021/01/24 12:42:31;;;;;;;9.90;2.00;;;;;;;;;;5054923;28;20017;-46
2021/01/24 12:44:58;;;;;;;8.60;2.05;;;;;;;;;;5054811;28;20040;-48
2021/01/24 12:47:25;;;;;;;15.13;2.60;;;;;;;;;;5053925;28;20054;-48
2021/01/24 12:49:52;;;;;;;25.08;3.40;;;;;;;;;;5046804;28;20072;-46
2021/01/24 12:52:19;;;;;;;16.63;3.05;;;;;;;;;;5035011;28;20087;-47
2021/01/24 12:54:46;;;;;;;12.82;2.17;;;;;;;;;;5034797;28;20021;-48
2021/01/24 12:57:13;;;;;;;14.25;2.50;;;;;;;;;;5034660;28;20075;-48
2021/01/24 12:59:43;;;;;;;12.80;2.13;;;;;;;;;;5034965;28;20029;-49
2021/01/24 13:02:12;;;;;;;11.80;1.90;;;;;;;;;;5034722;28;20021;-48
2021/01/24 13:04:39;;;;;;;16.83;2.45;;;;;;;;;;5034754;28;20112;-47
2021/01/24 13:07:07;;;;;;;44.20;3.75;;;;;;;;;;5034692;28;20056;-41
2021/01/24 13:09:38;;;;;;;14.23;2.35;;;;;;;;;;5036652;28;20030;-40
2021/01/24 13:12:05;;;;;;;33.58;4.03;;;;;;;;;;5042557;28;20013;-40
2021/01/24 13:14:33;;;;;;;32.83;3.95;;;;;;;;;;5048979;28;20377;-43
2021/01/24 13:17:01;;;;;;;28.83;3.40;;;;;;;;;;5046573;28;20055;-40
2021/01/24 13:19:29;;;;;;;24.90;3.67;;;;;;;;;;5044677;28;20029;-41
2021/01/24 13:21:56;;;;;;;22.17;3.53;;;;;;;;;;5044183;28;20021;-40
2021/01/24 13:24:23;;;;;;;21.20;2.60;;;;;;;;;;5053467;28;20029;-41
2021/01/24 13:26:50;;;;;;;21.52;2.90;;;;;;;;;;5050824;28;20025;-41
2021/01/24 13:29:17;;;;;;;14.02;2.53;;;;;;;;;;5046819;28;20033;-41
2021/01/24 13:31:44;;;;;;;18.90;2.47;;;;;;;;;;5042484;28;20021;-40
2021/01/24 13:34:11;;;;;;;23.42;3.53;;;;;;;;;;5040845;28;20114;-40
2021/01/24 13:36:38;;;;;;;28.50;3.80;;;;;;;;;;5038404;28;20905;-41
2021/01/24 13:39:06;;;;;;;15.70;2.33;;;;;;;;;;5046013;28;20029;-40
2021/01/24 13:41:33;;;;;;;19.38;2.58;;;;;;;;;;5047078;28;20349;-40
2021/01/24 13:44:00;;;;;;;16.67;3.13;;;;;;;;;;5044251;28;20021;-41
2021/01/24 13:46:27;;;;;;;22.55;2.40;;;;;;;;;;5048556;28;20032;-42
2021/01/24 13:48:54;;;;;;;16.13;3.28;;;;;;;;;;5046530;28;20071;-40
2021/01/24 13:51:21;;;;;;;23.00;3.58;;;;;;;;;;5046957;28;20498;-39
2021/01/24 13:56:36;;;;;;;29.75;3.50;;;;;;;;;;5081019;22;20085;-40
2021/01/24 13:59:03;;;;;;;23.23;4.10;;;;;;;;;;5020823;28;20043;-40
2021/01/24 14:01:31;;;;;;;26.63;4.57;;;;;;;;;;5025500;28;20097;-41
2021/01/24 14:03:58;;;;;;;30.67;4.30;;;;;;;;;;5050151;28;20022;-39
2021/01/24 14:06:25;;;;;;;28.40;3.90;;;;;;;;;;5036687;28;20070;-42
2021/01/24 14:08:52;;;;;;;25.30;3.80;;;;;;;;;;5052701;28;20023;-41
2021/01/24 14:11:19;;;;;;;25.15;3.83;;;;;;;;;;5042604;28;20105;-44
2021/01/24 14:13:46;;;;;;;24.90;4.22;;;;;;;;;;5053428;28;20040;-41
2021/01/24 14:16:13;;;;;;;21.40;3.95;;;;;;;;;;5016788;28;20044;-43
2021/01/24 14:18:45;;;;;;;22.38;4.05;;;;;;;;;;5010122;28;20129;-44
2021/01/24 14:21:12;;;;;;;19.02;4.03;;;;;;;;;;5003333;28;20582;-42
2021/01/24 14:23:39;;;;;;;17.20;3.47;;;;;;;;;;5030339;28;20040;-41
2021/01/24 14:26:07;;;;;;;14.73;3.25;;;;;;;;;;5023807;28;20039;-41
2021/01/24 14:28:34;;;;;;;19.80;4.28;;;;;;;;;;5033010;28;20509;-42
2021/01/24 14:31:02;;;;;;;22.27;3.55;;;;;;;;;;5031382;28;20104;-43
2021/01/24 14:33:29;;;;;;;13.98;2.92;;;;;;;;;;5037436;28;20025;-45
2021/01/24 14:35:56;;;;;;;20.55;3.85;;;;;;;;;;5040362;28;20023;-42
2021/01/24 14:38:23;;;;;;;23.70;4.20;;;;;;;;;;5008506;28;20103;-42
2021/01/24 14:40:50;;;;;;;19.63;3.67;;;;;;;;;;5001065;28;20016;-42
2021/01/24 14:43:17;;;;;;;15.50;3.17;;;;;;;;;;5033925;28;20375;-42
2021/01/24 14:45:44;;;;;;;22.58;3.78;;;;;;;;;;5009973;28;20027;-39